Flight Track Log - Related Links

Times and Time Zones

All times are in EDT time to prevent confusion due to time zone crossing. See the KAL61 flight status page for this flight to view local times or setup timezone preferences in your user account.


Time Position Orientation Groundspeed Altitude Reporting Facility
EDT Latitude Longitude Course Direction KTS MPH feet Rate Location/Type
Fri 08:59:00 AM 37.4232 126.7907 107° East  Level FlightAware Approximate
Fri 09:00:00 AM 37.4188 126.9639 79° East  Level FlightAware Approximate
Fri 09:01:00 AM 37.4465 127.1436 79° East  Level FlightAware Approximate
Fri 09:02:00 AM 37.4761 127.3228 78° East  Level FlightAware Approximate
Fri 09:03:00 AM 37.5043 127.5025 79° East  Level FlightAware Approximate
Fri 09:04:00 AM 37.5223 127.6835 78° East  Level FlightAware Approximate
Fri 09:05:00 AM 37.5521 127.8629 79° East  Level FlightAware Approximate
Fri 09:06:00 AM 37.5805 128.0427 79° East  Level FlightAware Approximate
Fri 09:07:00 AM 37.6093 128.2225 78° East  Level FlightAware Approximate
Fri 09:08:00 AM 37.6404 128.4017 76° East  Level FlightAware Approximate
Fri 09:09:00 AM 37.6665 128.5822 81° East  Level FlightAware Approximate
Fri 09:10:00 AM 37.6938 128.7562 142° Southeast  Level FlightAware Approximate
Fri 09:11:00 AM 37.6125 128.9053 119° Southeast  Level FlightAware Approximate
Fri 09:12:00 AM 37.5384 129.0630 121° Southeast  Level FlightAware Approximate
Fri 09:13:00 AM 37.4636 129.2201 121° Southeast  Level FlightAware Approximate
Fri 09:14:00 AM 37.3922 129.3794 118° Southeast  Level FlightAware Approximate
Fri 09:15:00 AM 37.3167 129.5356 122° Southeast  Level FlightAware Approximate
Fri 09:16:00 AM 37.2401 129.6908 122° Southeast  Level FlightAware Approximate
Fri 09:17:00 AM 37.1632 129.8457 122° Southeast  Level FlightAware Approximate
Fri 09:18:00 AM 37.0862 130.0003 122° Southeast  Level FlightAware Approximate
Fri 09:19:00 AM 37.0090 130.1545 122° Southeast  Level FlightAware Approximate
Fri 09:20:00 AM 36.9315 130.3085 122° Southeast  Level FlightAware Approximate
Fri 09:21:00 AM 36.8539 130.4621 122° Southeast  Level FlightAware Approximate
Fri 09:22:00 AM 36.7761 130.6154 122° Southeast  Level FlightAware Approximate
Fri 09:23:00 AM 36.6984 130.7687 122° Southeast  Level FlightAware Approximate
Fri 09:24:00 AM 36.6206 130.9217 122° Southeast  Level FlightAware Approximate
Fri 09:25:00 AM 36.5426 131.0744 122° Southeast  Level FlightAware Approximate
Fri 09:26:00 AM 36.4645 131.2269 122° Southeast  Level FlightAware Approximate
Fri 09:27:00 AM 36.3861 131.3790 123° Southeast  Level FlightAware Approximate
Fri 09:28:00 AM 36.3625 131.5523 92° East  Level FlightAware Approximate
Fri 09:29:00 AM 36.3567 131.7327 92° East  Level FlightAware Approximate
Fri 09:30:00 AM 36.3506 131.9129 92° East  Level FlightAware Approximate
Fri 09:31:00 AM 36.3442 132.0932 92° East  Level FlightAware Approximate
Fri 09:32:00 AM 36.3376 132.2735 93° East  Level FlightAware Approximate
Fri 09:33:00 AM 36.3307 132.4537 93° East  Level FlightAware Approximate
Fri 09:34:00 AM 36.3236 132.6339 93° East  Level FlightAware Approximate
Fri 09:35:00 AM 36.3161 132.8140 93° East  Level FlightAware Approximate
Fri 09:36:00 AM 36.3084 132.9941 93° East  Level FlightAware Approximate
Fri 09:37:00 AM 36.3004 133.1742 93° East  Level FlightAware Approximate
Fri 09:38:00 AM 36.2922 133.3542 93° East  Level FlightAware Approximate
Fri 09:39:00 AM 36.2837 133.5342 93° East  Level FlightAware Approximate
Fri 09:40:00 AM 36.2749 133.7142 93° East  Level FlightAware Approximate
Fri 09:41:00 AM 36.2658 133.8941 94° East  Level FlightAware Approximate
Fri 09:42:00 AM 36.2565 134.0739 94° East  Level FlightAware Approximate
Fri 09:43:00 AM 36.2469 134.2538 94° East  Level FlightAware Approximate
Fri 09:44:00 AM 36.2370 134.4335 94° East  Level FlightAware Approximate
Fri 09:45:00 AM 36.2444 134.6127 83° East  Level FlightAware Approximate
Fri 09:46:00 AM 36.2618 134.7917 83° East  Level FlightAware Approximate
Fri 09:47:00 AM 36.2790 134.9707 83° East  Level FlightAware Approximate
Fri 09:48:00 AM 36.2937 135.1500 84° East  Level FlightAware Approximate
Fri 09:49:00 AM 36.3074 135.3296 85° East  Level FlightAware Approximate
Fri 09:50:00 AM 36.3208 135.5092 85° East  Level FlightAware Approximate
Fri 09:51:00 AM 36.3339 135.6888 85° East  Level FlightAware Approximate
Fri 09:52:00 AM 36.3468 135.8685 85° East  Level FlightAware Approximate
Fri 09:53:00 AM 36.3595 136.0483 85° East  Level FlightAware Approximate
Fri 09:54:00 AM 36.3718 136.2281 85° East  Level FlightAware Approximate
Fri 09:55:00 AM 36.3842 136.4080 83° East  Level FlightAware Approximate
Fri 09:56:00 AM 36.4025 136.5871 83° East  Level FlightAware Approximate
Fri 09:57:00 AM 36.4202 136.7616 83° East  Level FlightAware Approximate
Fri 09:58:00 AM 36.4376 136.9361 83° East  Level FlightAware Approximate
Fri 09:59:00 AM 36.4547 137.1107 83° East  Level FlightAware Approximate
Fri 10:00:00 AM 36.4716 137.2854 83° East  Level FlightAware Approximate
Fri 10:01:00 AM 36.4882 137.4602 83° East  Level FlightAware Approximate
Fri 10:02:00 AM 36.5046 137.6351 83° East  Level FlightAware Approximate
Fri 10:03:00 AM 36.5207 137.8100 83° East  Level FlightAware Approximate
Fri 10:04:00 AM 36.5365 137.9850 84° East  Level FlightAware Approximate
Fri 10:05:00 AM 36.5521 138.1600 84° East  Level FlightAware Approximate
Fri 10:06:00 AM 36.5675 138.3352 84° East  Level FlightAware Approximate
Fri 10:07:00 AM 36.5826 138.5104 84° East  Level FlightAware Approximate
Fri 10:08:00 AM 36.5974 138.6857 84° East  Level FlightAware Approximate
Fri 10:09:00 AM 36.6128 138.8609 84° East  Level FlightAware Approximate
Fri 10:10:00 AM 36.6281 139.0362 84° East  Level FlightAware Approximate
Fri 10:11:00 AM 36.6432 139.2115 84° East  Level FlightAware Approximate
Fri 10:12:00 AM 36.6580 139.3869 84° East  Level FlightAware Approximate
Fri 10:13:00 AM 36.6725 139.5624 84° East  Level FlightAware Approximate
Fri 10:14:00 AM 36.6868 139.7380 84° East  Level FlightAware Approximate
Fri 10:15:00 AM 36.7009 139.9136 84° East  Level FlightAware Approximate
Fri 10:16:00 AM 36.7146 140.0893 84° East  Level FlightAware Approximate
Fri 10:17:00 AM 36.7281 140.2650 84° East  Level FlightAware Approximate
Fri 10:18:00 AM 36.7428 140.4406 84° East  Level FlightAware Approximate
Fri 10:19:00 AM 36.7581 140.6162 84° East  Level FlightAware Approximate
Fri 10:20:00 AM 36.7732 140.7918 84° East  Level FlightAware Approximate
Fri 10:21:00 AM 36.7880 140.9675 84° East  Level FlightAware Approximate
Fri 10:22:00 AM 36.8026 141.1433 84° East  Level FlightAware Approximate
Fri 10:23:00 AM 36.8169 141.3192 84° East  Level FlightAware Approximate
Fri 10:24:00 AM 36.8303 141.4951 84° East  Level FlightAware Approximate
Fri 10:25:00 AM 36.8436 141.6712 85° East  Level FlightAware Approximate
Fri 10:26:00 AM 36.8565 141.8473 85° East  Level FlightAware Approximate
Fri 10:27:00 AM 36.8692 142.0234 85° East  Level FlightAware Approximate
Fri 10:28:00 AM 36.8817 142.1997 85° East  Level FlightAware Approximate
Fri 10:29:00 AM 36.8938 142.3759 85° East  Level FlightAware Approximate
Fri 10:30:00 AM 36.9062 142.5522 85° East  Level FlightAware Approximate
Fri 10:31:00 AM 36.9187 142.7285 85° East  Level FlightAware Approximate
Fri 10:32:00 AM 36.9309 142.9049 85° East  Level FlightAware Approximate
Fri 10:33:00 AM 36.9429 143.0813 85° East  Level FlightAware Approximate
Fri 10:34:00 AM 36.9546 143.2577 85° East  Level FlightAware Approximate
Fri 10:35:00 AM 36.9661 143.4342 85° East  Level FlightAware Approximate
Fri 10:36:00 AM 36.9772 143.6108 85° East  Level FlightAware Approximate
Fri 10:37:00 AM 36.9882 143.7874 86° East  Level FlightAware Approximate
Fri 10:38:00 AM 36.9989 143.9641 86° East  Level FlightAware Approximate
Fri 10:39:00 AM 37.0182 144.1396 82° East  Level FlightAware Approximate
Fri 10:40:00 AM 37.0384 144.3150 82° East  Level FlightAware Approximate
Fri 10:41:00 AM 37.0584 144.4906 82° East  Level FlightAware Approximate
Fri 10:42:00 AM 37.0780 144.6662 82° East  Level FlightAware Approximate
Fri 10:43:00 AM 37.0975 144.8419 82° East  Level FlightAware Approximate
Fri 10:44:00 AM 37.1166 145.0177 82° East  Level FlightAware Approximate
Fri 10:45:00 AM 37.1355 145.1936 82° East  Level FlightAware Approximate
Fri 10:46:00 AM 37.1542 145.3696 82° East  Level FlightAware Approximate
Fri 10:47:00 AM 37.1726 145.5457 82° East  Level FlightAware Approximate
Fri 10:48:00 AM 37.2141 145.7113 58° Northeast  Level FlightAware Approximate
Fri 10:49:00 AM 37.2895 145.8618 58° Northeast  Level FlightAware Approximate
Fri 10:50:00 AM 37.3646 146.0125 58° Northeast  Level FlightAware Approximate
Fri 10:51:00 AM 37.4396 146.1636 58° Northeast  Level FlightAware Approximate
Fri 10:52:00 AM 37.5144 146.3150 58° Northeast  Level FlightAware Approximate
Fri 10:53:00 AM 37.5889 146.4667 58° Northeast  Level FlightAware Approximate
Fri 10:54:00 AM 37.6633 146.6187 58° Northeast  Level FlightAware Approximate
Fri 10:55:00 AM 37.7375 146.7710 58° Northeast  Level FlightAware Approximate
Fri 10:56:00 AM 37.8115 146.9236 58° Northeast  Level FlightAware Approximate
Fri 10:57:00 AM 37.8853 147.0765 59° Northeast  Level FlightAware Approximate
Fri 10:58:00 AM 37.9589 147.2298 59° Northeast  Level FlightAware Approximate
Fri 10:59:00 AM 38.0323 147.3833 59° Northeast  Level FlightAware Approximate
Fri 11:00:00 AM 38.1055 147.5371 59° Northeast  Level FlightAware Approximate
Fri 11:01:00 AM 38.1785 147.6913 59° Northeast  Level FlightAware Approximate
Fri 11:02:00 AM 38.2513 147.8457 59° Northeast  Level FlightAware Approximate
Fri 11:03:00 AM 38.3239 148.0005 59° Northeast  Level FlightAware Approximate
Fri 11:04:00 AM 38.3963 148.1555 59° Northeast  Level FlightAware Approximate
Fri 11:05:00 AM 38.4684 148.3109 59° Northeast  Level FlightAware Approximate
Fri 11:06:00 AM 38.5404 148.4666 59° Northeast  Level FlightAware Approximate
Fri 11:07:00 AM 38.6122 148.6226 59° Northeast  Level FlightAware Approximate
Fri 11:08:00 AM 38.6838 148.7789 60° Northeast  Level FlightAware Approximate
Fri 11:09:00 AM 38.7551 148.9355 60° Northeast  Level FlightAware Approximate
Fri 11:10:00 AM 38.8262 149.0925 60° Northeast  Level FlightAware Approximate
Fri 11:11:00 AM 38.8972 149.2497 60° Northeast  Level FlightAware Approximate
Fri 11:12:00 AM 38.9679 149.4073 60° Northeast  Level FlightAware Approximate
Fri 11:13:00 AM 39.0384 149.5652 60° Northeast  Level FlightAware Approximate
Fri 11:14:00 AM 39.1087 149.7234 60° Northeast  Level FlightAware Approximate
Fri 11:15:00 AM 39.1840 149.8776 54° Northeast  Level FlightAware Approximate
Fri 11:16:00 AM 39.2666 150.0259 54° Northeast  Level FlightAware Approximate
Fri 11:17:00 AM 39.3490 150.1746 54° Northeast  Level FlightAware Approximate
Fri 11:18:00 AM 39.4312 150.3236 54° Northeast  Level FlightAware Approximate
Fri 11:19:00 AM 39.5133 150.4730 55° Northeast  Level FlightAware Approximate
Fri 11:20:00 AM 39.5951 150.6227 55° Northeast  Level FlightAware Approximate
Fri 11:21:00 AM 39.6767 150.7728 55° Northeast  Level FlightAware Approximate
Fri 11:22:00 AM 39.7582 150.9233 55° Northeast  Level FlightAware Approximate
Fri 11:23:00 AM 39.8394 151.0741 55° Northeast  Level FlightAware Approximate
Fri 11:24:00 AM 39.9205 151.2252 55° Northeast  Level FlightAware Approximate
Fri 11:25:00 AM 40.0014 151.3767 55° Northeast  Level FlightAware Approximate
Fri 11:26:00 AM 40.0820 151.5286 55° Northeast  Level FlightAware Approximate
Fri 11:27:00 AM 40.1625 151.6808 55° Northeast  Level FlightAware Approximate
Fri 11:28:00 AM 40.2427 151.8334 55° Northeast  Level FlightAware Approximate
Fri 11:29:00 AM 40.3228 151.9864 55° Northeast  Level FlightAware Approximate
Fri 11:30:00 AM 40.4026 152.1397 56° Northeast  Level FlightAware Approximate
Fri 11:31:00 AM 40.4823 152.2934 56° Northeast  Level FlightAware Approximate
Fri 11:32:00 AM 40.5618 152.4474 56° Northeast  Level FlightAware Approximate
Fri 11:33:00 AM 40.6410 152.6019 56° Northeast  Level FlightAware Approximate
Fri 11:34:00 AM 40.7201 152.7566 56° Northeast  Level FlightAware Approximate
Fri 11:35:00 AM 40.7989 152.9118 56° Northeast  Level FlightAware Approximate
Fri 11:36:00 AM 40.8775 153.0673 56° Northeast  Level FlightAware Approximate
Fri 11:37:00 AM 40.9559 153.2232 56° Northeast  Level FlightAware Approximate
Fri 11:38:00 AM 41.0341 153.3794 56° Northeast  Level FlightAware Approximate
Fri 11:39:00 AM 41.1121 153.5361 57° Northeast  Level FlightAware Approximate
Fri 11:40:00 AM 41.1899 153.6931 57° Northeast  Level FlightAware Approximate
Fri 11:41:00 AM 41.2675 153.8504 57° Northeast  Level FlightAware Approximate
Fri 11:42:00 AM 41.3448 154.0082 57° Northeast  Level FlightAware Approximate
Fri 11:43:00 AM 41.4220 154.1663 57° Northeast  Level FlightAware Approximate
Fri 11:44:00 AM 41.4989 154.3248 57° Northeast  Level FlightAware Approximate
Fri 11:45:00 AM 41.5756 154.4837 57° Northeast  Level FlightAware Approximate
Fri 11:46:00 AM 41.6521 154.6429 57° Northeast  Level FlightAware Approximate
Fri 11:47:00 AM 41.7284 154.8026 57° Northeast  Level FlightAware Approximate
Fri 11:48:00 AM 41.8044 154.9626 57° Northeast  Level FlightAware Approximate
Fri 11:49:00 AM 41.8802 155.1230 58° Northeast  Level FlightAware Approximate
Fri 11:50:00 AM 41.9558 155.2837 58° Northeast  Level FlightAware Approximate
Fri 11:51:00 AM 42.0312 155.4449 58° Northeast  Level FlightAware Approximate
Fri 11:52:00 AM 42.1063 155.6064 58° Northeast  Level FlightAware Approximate
Fri 11:53:00 AM 42.1813 155.7683 58° Northeast  Level FlightAware Approximate
Fri 11:54:00 AM 42.2559 155.9306 58° Northeast  Level FlightAware Approximate
Fri 11:55:00 AM 42.3304 156.0933 58° Northeast  Level FlightAware Approximate
Fri 11:56:00 AM 42.4046 156.2564 58° Northeast  Level FlightAware Approximate
Fri 11:57:00 AM 42.4786 156.4198 58° Northeast  Level FlightAware Approximate
Fri 11:58:00 AM 42.5524 156.5837 59° Northeast  Level FlightAware Approximate
Fri 11:59:00 AM 42.6259 156.7479 59° Northeast  Level FlightAware Approximate
Fri 12:00:00 PM 42.6992 156.9125 59° Northeast  Level FlightAware Approximate
Fri 12:01:00 PM 42.7723 157.0775 59° Northeast  Level FlightAware Approximate
Fri 12:02:00 PM 42.8451 157.2429 59° Northeast  Level FlightAware Approximate
Fri 12:03:00 PM 42.9177 157.4087 59° Northeast  Level FlightAware Approximate
Fri 12:04:00 PM 42.9900 157.5748 59° Northeast  Level FlightAware Approximate
Fri 12:05:00 PM 43.0621 157.7414 59° Northeast  Level FlightAware Approximate
Fri 12:06:00 PM 43.1340 157.9083 59° Northeast  Level FlightAware Approximate
Fri 12:07:00 PM 43.2056 158.0757 60° Northeast  Level FlightAware Approximate
Fri 12:08:00 PM 43.2770 158.2434 60° Northeast  Level FlightAware Approximate
Fri 12:09:00 PM 43.3481 158.4115 60° Northeast  Level FlightAware Approximate
Fri 12:10:00 PM 43.4190 158.5801 60° Northeast  Level FlightAware Approximate
Fri 12:11:00 PM 43.4896 158.7490 60° Northeast  Level FlightAware Approximate
Fri 12:12:00 PM 43.5600 158.9183 60° Northeast  Level FlightAware Approximate
Fri 12:13:00 PM 43.6301 159.0880 60° Northeast  Level FlightAware Approximate
Fri 12:14:00 PM 43.7000 159.2581 60° Northeast  Level FlightAware Approximate
Fri 12:15:00 PM 43.7697 159.4286 60° Northeast  Level FlightAware Approximate
Fri 12:16:00 PM 43.8390 159.5995 61° Northeast  Level FlightAware Approximate
Fri 12:17:00 PM 43.9082 159.7708 61° Northeast  Level FlightAware Approximate
Fri 12:18:00 PM 43.9770 159.9425 61° Northeast  Level FlightAware Approximate
Fri 12:19:00 PM 44.0309 160.1237 71° East  Level FlightAware Approximate
Fri 12:20:00 PM 44.0771 160.3098 71° East  Level FlightAware Approximate
Fri 12:21:00 PM 44.1231 160.4962 71° East  Level FlightAware Approximate
Fri 12:22:00 PM 44.1687 160.6829 71° East  Level FlightAware Approximate
Fri 12:23:00 PM 44.2140 160.8699 71° East  Level FlightAware Approximate
Fri 12:23:02 PM 44.8333 163.6000 73° East 517 595 33,000  Level Oakland Oceanic (ODAPS)
Fri 12:24:00 PM 44.2590 161.0571 71° East  Level FlightAware Approximate
Fri 12:25:00 PM 44.3036 161.2447 72° East  Level FlightAware Approximate
Fri 12:26:00 PM 44.3480 161.4325 72° East  Level FlightAware Approximate
Fri 12:27:00 PM 44.3921 161.6207 72° East  Level FlightAware Approximate
Fri 12:28:00 PM 44.4359 161.8091 72° East  Level FlightAware Approximate
Fri 12:29:00 PM 45.0791 164.7794 74° East 517 595 33,000  Level FlightAware Transoceanic
Fri 12:30:00 PM 45.1189 164.9769 74° East 517 595 33,000  Level FlightAware Transoceanic
Fri 12:31:00 PM 45.1583 165.1747 74° East 517 595 33,000  Level FlightAware Transoceanic
Fri 12:32:00 PM 45.1974 165.3728 74° East 517 595 33,000  Level FlightAware Transoceanic
Fri 12:32:27 PM 45.2167 165.5000 74° East 515 593 33,000  Level Oakland Oceanic (ODAPS)
Fri 12:33:00 PM 45.2361 165.5712 75° East 517 595 33,000  Level FlightAware Transoceanic
Fri 12:34:00 PM 45.2745 165.7698 75° East 517 595 33,000  Level FlightAware Transoceanic
Fri 12:35:00 PM 45.3126 165.9687 75° East 517 595 33,000  Level FlightAware Transoceanic
Fri 12:36:00 PM 45.3503 166.1678 75° East 517 595 33,000  Level FlightAware Transoceanic
Fri 12:37:00 PM 45.3877 166.3673 75° East 517 595 33,000  Level FlightAware Transoceanic
Fri 12:38:00 PM 45.4380 166.6616 75° East 515 593 33,000  Level FlightAware Transoceanic
Fri 12:39:00 PM 45.4737 166.8561 75° East 515 593 33,000  Level FlightAware Transoceanic
Fri 12:40:00 PM 45.5091 167.0508 76° East 515 593 33,000  Level FlightAware Transoceanic
Fri 12:41:00 PM 45.5442 167.2458 76° East 515 593 33,000  Level FlightAware Transoceanic
Fri 12:42:00 PM 45.5789 167.4410 76° East 515 593 33,000  Level FlightAware Transoceanic
Fri 12:43:00 PM 45.6133 167.6365 76° East 515 593 33,000  Level FlightAware Transoceanic
Fri 12:44:00 PM 45.6474 167.8322 76° East 515 593 33,000  Level FlightAware Transoceanic
Fri 12:45:00 PM 45.6812 168.0281 76° East 515 593 33,000  Level FlightAware Transoceanic
Fri 12:46:00 PM 45.7146 168.2242 76° East 515 593 33,000 759 Level FlightAware Transoceanic
Fri 12:46:19 PM 45.7167 168.2167 77° East 505 581 34,000  Climbing Oakland Oceanic (ODAPS)
Fri 12:47:00 PM 45.7476 168.4206 77° East 515 593 33,000 -594 Descending FlightAware Transoceanic
Fri 12:48:00 PM 45.7804 168.6173 77° East 515 593 33,000  Level FlightAware Transoceanic
Fri 12:49:00 PM 45.8128 168.8141 77° East 515 593 33,000  Level FlightAware Transoceanic
Fri 12:50:00 PM 45.8448 169.0112 77° East 515 593 33,000  Level FlightAware Transoceanic
Fri 12:51:00 PM 45.8765 169.2085 77° East 515 593 33,000 500 Level FlightAware Transoceanic
Fri 12:52:00 PM 45.9086 169.4035 77° East 505 581 34,000 500 Climbing FlightAware Transoceanic
Fri 12:53:00 PM 45.9394 169.6021 78° East 505 581 34,000  Level FlightAware Transoceanic
Fri 12:54:00 PM 45.9699 169.8010 78° East 505 581 34,000  Level FlightAware Transoceanic
Fri 12:55:00 PM 46.0000 170.0000 86° East 505 581 34,000  Level FlightAware Transoceanic
Fri 12:55:43 PM 46.0000 170.0000 86° East 498 573 34,000  Level Oakland Oceanic (ODAPS)
Fri 12:56:00 PM 46.0084 170.1956 87° East 505 581 34,000  Level FlightAware Transoceanic
Fri 12:57:00 PM 46.0164 170.3912 87° East 505 581 34,000  Level FlightAware Transoceanic
Fri 12:58:00 PM 46.0242 170.5869 87° East 505 581 34,000  Level FlightAware Transoceanic
Fri 12:59:00 PM 46.0315 170.7827 87° East 505 581 34,000  Level FlightAware Transoceanic
Fri 01:00:00 PM 46.0386 170.9785 87° East 505 581 34,000  Level FlightAware Transoceanic
Fri 01:00:11 PM 46.0333 170.9167 87° East 497 572 34,000  Level Oakland Oceanic (ODAPS)
Fri 01:01:00 PM 46.0453 171.1744 87° East 498 573 34,000  Level FlightAware Transoceanic
Fri 01:02:00 PM 46.0517 171.3703 87° East 498 573 34,000  Level FlightAware Transoceanic
Fri 01:03:00 PM 46.0577 171.5662 88° East 498 573 34,000  Level FlightAware Transoceanic
Fri 01:04:00 PM 46.0634 171.7622 88° East 498 573 34,000  Level FlightAware Transoceanic
Fri 01:05:00 PM 46.0688 171.9583 88° East 498 573 34,000  Level FlightAware Transoceanic
Fri 01:06:00 PM 46.0698 172.1004 88° East 497 572 34,000  Level FlightAware Transoceanic
Fri 01:07:00 PM 46.0747 172.2979 88° East 497 572 34,000  Level FlightAware Transoceanic
Fri 01:08:00 PM 46.0793 172.4953 88° East 497 572 34,000  Level FlightAware Transoceanic
Fri 01:09:00 PM 46.0835 172.6928 88° East 497 572 34,000  Level FlightAware Transoceanic
Fri 01:10:00 PM 46.0873 172.8903 88° East 497 572 34,000  Level FlightAware Transoceanic
Fri 01:11:00 PM 46.0909 173.0879 89° East 497 572 34,000  Level FlightAware Transoceanic
Fri 01:12:00 PM 46.0941 173.2855 89° East 497 572 34,000  Level FlightAware Transoceanic
Fri 01:13:00 PM 46.0969 173.4831 89° East 497 572 34,000  Level FlightAware Transoceanic
Fri 01:14:00 PM 46.0994 173.6807 89° East 497 572 34,000  Level FlightAware Transoceanic
Fri 01:14:03 PM 46.1000 173.6167 89° East 493 567 34,000  Level Oakland Oceanic (ODAPS)
Fri 01:15:00 PM 46.1016 173.8783 89° East 497 572 34,000  Level FlightAware Transoceanic
Fri 01:16:00 PM 46.1034 174.0760 89° East 497 572 34,000  Level FlightAware Transoceanic
Fri 01:17:00 PM 46.1049 174.2736 89° East 497 572 34,000  Level FlightAware Transoceanic
Fri 01:18:00 PM 46.1061 174.4713 90° East 497 572 34,000  Level FlightAware Transoceanic
Fri 01:19:00 PM 46.1069 174.6690 90° East 497 572 34,000  Level FlightAware Transoceanic
Fri 01:20:00 PM 46.1083 174.8147 90° East 493 567 34,000  Level FlightAware Transoceanic
Fri 01:21:00 PM 46.1085 175.0143 90° East 493 567 34,000  Level FlightAware Transoceanic
Fri 01:22:00 PM 46.1083 175.2140 90° East 493 567 34,000  Level FlightAware Transoceanic
Fri 01:23:00 PM 46.1078 175.4137 90° East 493 567 34,000  Level FlightAware Transoceanic
Fri 01:24:00 PM 46.1069 175.6134 90° East 493 567 34,000  Level FlightAware Transoceanic
Fri 01:25:00 PM 46.1057 175.8131 91° East 493 567 34,000  Level FlightAware Transoceanic
Fri 01:26:00 PM 46.1042 176.0127 91° East 493 567 34,000  Level FlightAware Transoceanic
Fri 01:27:00 PM 46.1023 176.2124 91° East 493 567 34,000  Level FlightAware Transoceanic
Fri 01:27:56 PM 46.1000 176.2667 91° East 481 554 34,000  Level Oakland Oceanic (ODAPS)
Fri 01:28:00 PM 46.1000 176.4120 91° East 493 567 34,000  Level FlightAware Transoceanic
Fri 01:29:00 PM 46.0974 176.6116 91° East 493 567 34,000  Level FlightAware Transoceanic
Fri 01:30:00 PM 46.0944 176.8112 91° East 493 567 34,000  Level FlightAware Transoceanic
Fri 01:31:00 PM 46.0911 177.0108 91° East 493 567 34,000  Level FlightAware Transoceanic
Fri 01:32:00 PM 46.0875 177.2103 92° East 493 567 34,000  Level FlightAware Transoceanic
Fri 01:33:00 PM 46.0835 177.4099 92° East 493 567 34,000  Level FlightAware Transoceanic
Fri 01:34:00 PM 46.0816 177.4470 92° East 481 554 34,000  Level FlightAware Transoceanic
Fri 01:35:00 PM 46.0773 177.6436 92° East 481 554 34,000  Level FlightAware Transoceanic
Fri 01:36:00 PM 46.0727 177.8402 92° East 481 554 34,000  Level FlightAware Transoceanic
Fri 01:37:00 PM 46.0678 178.0368 92° East 481 554 34,000  Level FlightAware Transoceanic
Fri 01:38:00 PM 46.0625 178.2333 92° East 481 554 34,000  Level FlightAware Transoceanic
Fri 01:39:00 PM 46.0569 178.4298 92° East 481 554 34,000  Level FlightAware Transoceanic
Fri 01:40:00 PM 46.0510 178.6262 93° East 481 554 34,000  Level FlightAware Transoceanic
Fri 01:41:00 PM 46.0447 178.8226 93° East 481 554 34,000  Level FlightAware Transoceanic
Fri 01:41:48 PM 46.0500 178.9000 93° East 474 545 34,000  Level Oakland Oceanic (ODAPS)
Fri 01:42:00 PM 46.0381 179.0190 93° East 481 554 34,000  Level FlightAware Transoceanic
Fri 01:43:00 PM 46.0312 179.2153 93° East 481 554 34,000  Level FlightAware Transoceanic
Fri 01:44:00 PM 46.0239 179.4115 93° East 481 554 34,000  Level FlightAware Transoceanic
Fri 01:45:00 PM 46.0163 179.6078 93° East 481 554 34,000  Level FlightAware Transoceanic
Fri 01:46:00 PM 46.0083 179.8039 93° East 481 554 34,000  Level FlightAware Transoceanic
Fri 01:47:00 PM 46.0000 -180.0000 86° East 481 554 34,000  Level FlightAware Transoceanic
Fri 01:47:41 PM 46.0000 180.0000 86° East 482 555 34,000  Level Oakland Oceanic (ODAPS)
Fri 01:48:00 PM 46.0000 -180.0000 86° East 474 545 34,000  Level FlightAware Transoceanic
Fri 01:49:00 PM 46.0082 -179.8082 87° East 474 545 34,000  Level FlightAware Transoceanic
Fri 01:50:00 PM 46.0161 -179.6163 87° East 474 545 34,000  Level FlightAware Transoceanic
Fri 01:51:00 PM 46.0237 -179.4243 87° East 474 545 34,000  Level FlightAware Transoceanic
Fri 01:52:00 PM 46.0310 -179.2323 87° East 474 545 34,000  Level FlightAware Transoceanic
Fri 01:53:00 PM 46.0379 -179.0403 87° East 482 555 34,000  Level FlightAware Transoceanic
Fri 01:54:00 PM 46.0445 -178.8482 87° East 482 555 34,000  Level FlightAware Transoceanic
Fri 01:55:00 PM 46.0508 -178.6561 87° East 482 555 34,000 588 Level FlightAware Transoceanic
Fri 01:55:42 PM 46.0500 -178.5000 87° East 488 562 35,000  Climbing Oakland Oceanic (ODAPS)
Fri 01:56:00 PM 46.0568 -178.4639 88° East 482 555 34,000 -769 Descending FlightAware Transoceanic
Fri 01:57:00 PM 46.0625 -178.2717 88° East 482 555 34,000  Level FlightAware Transoceanic
Fri 01:58:00 PM 46.0678 -178.0794 88° East 482 555 34,000  Level FlightAware Transoceanic
Fri 01:59:00 PM 46.0728 -177.8871 88° East 482 555 34,000  Level FlightAware Transoceanic
Fri 02:00:00 PM 46.0775 -177.6948 88° East 482 555 34,000  Level FlightAware Transoceanic
Fri 02:01:00 PM 46.0818 -177.5025 88° East 482 555 34,000 500 Level FlightAware Transoceanic
Fri 02:02:00 PM 46.0809 -177.3144 88° East 488 562 35,000 500 Climbing FlightAware Transoceanic
Fri 02:03:00 PM 46.0848 -177.1167 88° East 488 562 35,000  Level FlightAware Transoceanic
Fri 02:04:00 PM 46.0885 -176.9190 89° East 488 562 35,000  Level FlightAware Transoceanic
Fri 02:05:00 PM 46.0917 -176.7212 89° East 488 562 35,000  Level FlightAware Transoceanic
Fri 02:06:00 PM 46.0947 -176.5234 89° East 488 562 35,000  Level FlightAware Transoceanic
Fri 02:07:00 PM 46.0972 -176.3256 89° East 488 562 35,000  Level FlightAware Transoceanic
Fri 02:08:00 PM 46.0995 -176.1278 89° East 488 562 35,000  Level FlightAware Transoceanic
Fri 02:09:00 PM 46.1014 -175.9300 89° East 488 562 35,000  Level FlightAware Transoceanic
Fri 02:09:32 PM 46.1000 -175.8167 89° East 489 563 35,000  Level Oakland Oceanic (ODAPS)
Fri 02:10:00 PM 46.1030 -175.7321 89° East 488 562 35,000  Level FlightAware Transoceanic
Fri 02:11:00 PM 46.1042 -175.5343 90° East 488 562 35,000  Level FlightAware Transoceanic
Fri 02:12:00 PM 46.1051 -175.3364 90° East 488 562 35,000  Level FlightAware Transoceanic
Fri 02:13:00 PM 46.1056 -175.1385 90° East 488 562 35,000  Level FlightAware Transoceanic
Fri 02:14:00 PM 46.1058 -174.9406 90° East 488 562 35,000  Level FlightAware Transoceanic
Fri 02:15:00 PM 46.1036 -174.6521 90° East 489 563 35,000  Level FlightAware Transoceanic
Fri 02:16:00 PM 46.1031 -174.4581 90° East 489 563 35,000  Level FlightAware Transoceanic
Fri 02:17:00 PM 46.1022 -174.2640 90° East 489 563 35,000  Level FlightAware Transoceanic
Fri 02:18:00 PM 46.1010 -174.0699 91° East 489 563 35,000  Level FlightAware Transoceanic
Fri 02:19:00 PM 46.0995 -173.8758 91° East 489 563 35,000  Level FlightAware Transoceanic
Fri 02:20:00 PM 46.0976 -173.6818 91° East 489 563 35,000  Level FlightAware Transoceanic
Fri 02:21:00 PM 46.0954 -173.4877 91° East 489 563 35,000  Level FlightAware Transoceanic
Fri 02:22:00 PM 46.0929 -173.2937 91° East 489 563 35,000  Level FlightAware Transoceanic
Fri 02:23:00 PM 46.0901 -173.0997 91° East 489 563 35,000  Level FlightAware Transoceanic
Fri 02:23:25 PM 46.1000 -173.1167 92° East 482 555 35,000  Level Oakland Oceanic (ODAPS)
Fri 02:24:00 PM 46.0869 -172.9057 91° East 489 563 35,000  Level FlightAware Transoceanic
Fri 02:25:00 PM 46.0834 -172.7117 92° East 489 563 35,000  Level FlightAware Transoceanic
Fri 02:26:00 PM 46.0796 -172.5178 92° East 489 563 35,000  Level FlightAware Transoceanic
Fri 02:27:00 PM 46.0754 -172.3239 92° East 489 563 35,000  Level FlightAware Transoceanic
Fri 02:28:00 PM 46.0709 -172.1300 92° East 489 563 35,000  Level FlightAware Transoceanic
Fri 02:29:00 PM 46.0744 -172.0154 92° East 482 555 35,000  Level FlightAware Transoceanic
Fri 02:30:00 PM 46.0691 -171.8320 92° East 482 555 35,000  Level FlightAware Transoceanic
Fri 02:31:00 PM 46.0635 -171.6486 93° East 482 555 35,000  Level FlightAware Transoceanic
Fri 02:32:00 PM 46.0576 -171.4653 93° East 482 555 35,000  Level FlightAware Transoceanic
Fri 02:33:00 PM 46.0514 -171.2819 93° East 482 555 35,000  Level FlightAware Transoceanic
Fri 02:34:00 PM 46.0450 -171.0987 93° East 482 555 35,000  Level FlightAware Transoceanic
Fri 02:35:00 PM 46.0382 -170.9154 93° East 482 555 35,000  Level FlightAware Transoceanic
Fri 02:36:00 PM 46.0312 -170.7322 93° East 482 555 35,000  Level FlightAware Transoceanic
Fri 02:37:00 PM 46.0238 -170.5491 93° East 482 555 35,000  Level FlightAware Transoceanic
Fri 02:37:17 PM 46.0167 -170.4500 93° East 484 557 35,000  Level Oakland Oceanic (ODAPS)
Fri 02:38:00 PM 46.0162 -170.3660 94° East 482 555 35,000  Level FlightAware Transoceanic
Fri 02:39:00 PM 46.0082 -170.1830 94° East 482 555 35,000  Level FlightAware Transoceanic
Fri 02:39:36 PM 46.0000 -170.0000 86° East 490 564 35,000  Level Oakland Oceanic (ODAPS)
Fri 02:40:00 PM 46.0000 -170.0000 86° East 482 555 35,000  Level FlightAware Transoceanic
Fri 02:41:00 PM 46.0085 -169.8005 87° East 482 555 35,000  Level FlightAware Transoceanic
Fri 02:42:00 PM 46.0168 -169.6009 87° East 482 555 35,000  Level FlightAware Transoceanic
Fri 02:43:00 PM 46.0315 -169.2173 87° East 484 557 35,000  Level FlightAware Transoceanic
Fri 02:44:00 PM 46.0386 -169.0215 87° East 484 557 35,000  Level FlightAware Transoceanic
Fri 02:45:00 PM 46.0445 -168.8482 87° East 490 564 35,000  Level FlightAware Transoceanic
Fri 02:46:00 PM 46.0508 -168.6561 87° East 490 564 35,000  Level FlightAware Transoceanic
Fri 02:47:00 PM 46.0568 -168.4639 88° East 490 564 35,000  Level FlightAware Transoceanic
Fri 02:48:00 PM 46.0625 -168.2717 88° East 490 564 35,000  Level FlightAware Transoceanic
Fri 02:49:00 PM 46.0678 -168.0794 88° East 490 564 35,000  Level FlightAware Transoceanic
Fri 02:50:00 PM 46.0728 -167.8871 88° East 490 564 35,000  Level FlightAware Transoceanic
Fri 02:51:00 PM 46.0775 -167.6948 88° East 490 564 35,000  Level FlightAware Transoceanic
Fri 02:51:09 PM 46.0833 -167.7500 88° East 494 568 35,000  Level Oakland Oceanic (ODAPS)
Fri 02:52:00 PM 46.0818 -167.5025 88° East 490 564 35,000  Level FlightAware Transoceanic
Fri 02:53:00 PM 46.0859 -167.3101 88° East 490 564 35,000  Level FlightAware Transoceanic
Fri 02:54:00 PM 46.0896 -167.1177 88° East 490 564 35,000  Level FlightAware Transoceanic
Fri 02:55:00 PM 46.0930 -166.9252 89° East 490 564 35,000  Level FlightAware Transoceanic
Fri 02:56:00 PM 46.0961 -166.7328 89° East 490 564 35,000  Level FlightAware Transoceanic
Fri 02:57:00 PM 46.1046 -166.5573 89° East 494 568 35,000  Level FlightAware Transoceanic
Fri 02:58:00 PM 46.1070 -166.3584 89° East 494 568 35,000  Level FlightAware Transoceanic
Fri 02:59:00 PM 46.1090 -166.1595 89° East 494 568 35,000  Level FlightAware Transoceanic
Fri 03:00:00 PM 46.1106 -165.9606 89° East 494 568 35,000  Level FlightAware Transoceanic
Fri 03:01:00 PM 46.1119 -165.7617 90° East 494 568 35,000  Level FlightAware Transoceanic
Fri 03:02:00 PM 46.1129 -165.5628 90° East 494 568 35,000  Level FlightAware Transoceanic
Fri 03:03:00 PM 46.1135 -165.3639 90° East 494 568 35,000  Level FlightAware Transoceanic
Fri 03:04:00 PM 46.1138 -165.1650 90° East 494 568 35,000  Level FlightAware Transoceanic
Fri 03:05:00 PM 46.1137 -164.9660 90° East 494 568 35,000  Level FlightAware Transoceanic
Fri 03:05:01 PM 46.1167 -165.0333 90° East 495 570 35,000  Level Oakland Oceanic (ODAPS)
Fri 03:06:00 PM 46.1133 -164.7671 90° East 494 568 35,000  Level FlightAware Transoceanic
Fri 03:07:00 PM 46.1126 -164.5682 90° East 494 568 35,000  Level FlightAware Transoceanic
Fri 03:08:00 PM 46.1115 -164.3693 91° East 494 568 35,000  Level FlightAware Transoceanic
Fri 03:09:00 PM 46.1100 -164.1704 91° East 494 568 35,000  Level FlightAware Transoceanic
Fri 03:10:00 PM 46.1082 -163.9715 91° East 494 568 35,000  Level FlightAware Transoceanic
Fri 03:11:00 PM 46.1088 -163.8237 91° East 495 570 35,000  Level FlightAware Transoceanic
Fri 03:12:00 PM 46.1063 -163.6221 91° East 495 570 35,000  Level FlightAware Transoceanic
Fri 03:13:00 PM 46.1034 -163.4206 91° East 495 570 35,000  Level FlightAware Transoceanic
Fri 03:14:00 PM 46.1001 -163.2191 91° East 495 570 35,000  Level FlightAware Transoceanic
Fri 03:15:00 PM 46.0965 -163.0176 92° East 495 570 35,000  Level FlightAware Transoceanic
Fri 03:16:00 PM 46.0926 -162.8161 92° East 495 570 35,000  Level FlightAware Transoceanic
Fri 03:17:00 PM 46.0882 -162.6147 92° East 495 570 35,000  Level FlightAware Transoceanic
Fri 03:18:00 PM 46.0836 -162.4133 92° East 495 570 35,000  Level FlightAware Transoceanic
Fri 03:18:55 PM 46.0833 -162.2667 92° East 497 572 35,000  Level Oakland Oceanic (ODAPS)
Fri 03:19:00 PM 46.0786 -162.2119 92° East 495 570 35,000  Level FlightAware Transoceanic
Fri 03:20:00 PM 46.0732 -162.0106 92° East 495 570 35,000  Level FlightAware Transoceanic
Fri 03:21:00 PM 46.0675 -161.8093 92° East 495 570 35,000  Level FlightAware Transoceanic
Fri 03:22:00 PM 46.0614 -161.6081 93° East 495 570 35,000  Level FlightAware Transoceanic
Fri 03:23:00 PM 46.0549 -161.4069 93° East 495 570 35,000  Level FlightAware Transoceanic
Fri 03:24:00 PM 46.0481 -161.2057 93° East 495 570 35,000  Level FlightAware Transoceanic
Fri 03:25:00 PM 46.0434 -161.0294 93° East 497 572 35,000  Level FlightAware Transoceanic
Fri 03:26:00 PM 46.0355 -160.8234 93° East 497 572 35,000  Level FlightAware Transoceanic
Fri 03:27:00 PM 46.0272 -160.6175 93° East 497 572 35,000  Level FlightAware Transoceanic
Fri 03:28:00 PM 46.0185 -160.4116 94° East 497 572 35,000  Level FlightAware Transoceanic
Fri 03:29:00 PM 46.0094 -160.2058 94° East 497 572 35,000  Level FlightAware Transoceanic
Fri 03:30:00 PM 46.0000 -160.0000 86° East 497 572 35,000  Level FlightAware Transoceanic
Fri 03:30:18 PM 46.0000 -160.0000 86° East 507 583 35,000  Level Oakland Oceanic (ODAPS)
Fri 03:31:00 PM 46.0089 -159.7922 87° East 497 572 35,000  Level FlightAware Transoceanic
Fri 03:32:00 PM 46.0174 -159.5843 87° East 497 572 35,000  Level FlightAware Transoceanic
Fri 03:32:47 PM 46.0167 -159.5000 87° East 509 586 35,000  Level Oakland Oceanic (ODAPS)
Fri 03:33:00 PM 46.0256 -159.3763 87° East 497 572 35,000  Level FlightAware Transoceanic
Fri 03:34:00 PM 46.0333 -159.1683 87° East 497 572 35,000  Level FlightAware Transoceanic
Fri 03:35:00 PM 46.0407 -158.9603 87° East 497 572 35,000  Level FlightAware Transoceanic
Fri 03:36:00 PM 46.0461 -158.8021 87° East 507 583 35,000  Level FlightAware Transoceanic
Fri 03:37:00 PM 46.0525 -158.6023 87° East 507 583 35,000  Level FlightAware Transoceanic
Fri 03:38:00 PM 46.0586 -158.4024 88° East 507 583 35,000  Level FlightAware Transoceanic
Fri 03:39:00 PM 46.0592 -158.2624 88° East 509 586 35,000  Level FlightAware Transoceanic
Fri 03:40:00 PM 46.0649 -158.0560 88° East 509 586 35,000  Level FlightAware Transoceanic
Fri 03:41:00 PM 46.0704 -157.8495 88° East 509 586 35,000  Level FlightAware Transoceanic
Fri 03:42:00 PM 46.0754 -157.6430 88° East 509 586 35,000  Level FlightAware Transoceanic
Fri 03:43:00 PM 46.0801 -157.4365 88° East 509 586 35,000  Level FlightAware Transoceanic
Fri 03:44:00 PM 46.0844 -157.2299 88° East 509 586 35,000  Level FlightAware Transoceanic
Fri 03:45:00 PM 46.0883 -157.0233 89° East 509 586 35,000  Level FlightAware Transoceanic
Fri 03:46:00 PM 46.0918 -156.8166 89° East 509 586 35,000  Level FlightAware Transoceanic
Fri 03:46:39 PM 46.1000 -156.6333 89° East 515 593 35,000  Level Oakland Oceanic (ODAPS)
Fri 03:47:00 PM 46.0950 -156.6100 89° East 509 586 35,000  Level FlightAware Transoceanic
Fri 03:48:00 PM 46.0978 -156.4033 89° East 509 586 35,000  Level FlightAware Transoceanic
Fri 03:49:00 PM 46.1002 -156.1966 89° East 509 586 35,000  Level FlightAware Transoceanic
Fri 03:50:00 PM 46.1023 -155.9898 89° East 509 586 35,000  Level FlightAware Transoceanic
Fri 03:51:00 PM 46.1040 -155.7831 89° East 509 586 35,000  Level FlightAware Transoceanic
Fri 03:52:00 PM 46.1097 -155.5960 90° East 515 593 35,000  Level FlightAware Transoceanic
Fri 03:53:00 PM 46.1105 -155.3885 90° East 515 593 35,000  Level FlightAware Transoceanic
Fri 03:54:00 PM 46.1110 -155.1810 90° East 515 593 35,000  Level FlightAware Transoceanic
Fri 03:55:00 PM 46.1110 -154.9735 90° East 515 593 35,000  Level FlightAware Transoceanic
Fri 03:56:00 PM 46.1107 -154.7660 90° East 515 593 35,000  Level FlightAware Transoceanic
Fri 03:57:00 PM 46.1100 -154.5585 90° East 515 593 35,000  Level FlightAware Transoceanic
Fri 03:58:00 PM 46.1089 -154.3510 90° East 515 593 35,000  Level FlightAware Transoceanic
Fri 03:59:00 PM 46.1075 -154.1435 91° East 515 593 35,000  Level FlightAware Transoceanic
Fri 04:00:00 PM 46.1057 -153.9360 91° East 515 593 35,000 659 Level FlightAware Transoceanic
Fri 04:00:31 PM 46.1000 -153.7500 91° East 522 601 36,000  Climbing Oakland Oceanic (ODAPS)
Fri 04:01:00 PM 46.1035 -153.7285 91° East 515 593 35,000 -674 Descending FlightAware Transoceanic
Fri 04:02:00 PM 46.1009 -153.5211 91° East 515 593 35,000  Level FlightAware Transoceanic
Fri 04:03:00 PM 46.0980 -153.3137 91° East 515 593 35,000  Level FlightAware Transoceanic
Fri 04:04:00 PM 46.0947 -153.1063 91° East 515 593 35,000  Level FlightAware Transoceanic
Fri 04:05:00 PM 46.0910 -152.8989 92° East 515 593 35,000 500 Level FlightAware Transoceanic
Fri 04:06:00 PM 46.0803 -152.4986 92° East 522 601 36,000 500 Climbing FlightAware Transoceanic
Fri 04:07:00 PM 46.0757 -152.2901 92° East 522 601 36,000  Level FlightAware Transoceanic
Fri 04:08:00 PM 46.0707 -152.0817 92° East 522 601 36,000  Level FlightAware Transoceanic
Fri 04:09:00 PM 46.0653 -151.8733 92° East 522 601 36,000  Level FlightAware Transoceanic
Fri 04:10:00 PM 46.0596 -151.6649 92° East 522 601 36,000  Level FlightAware Transoceanic
Fri 04:11:00 PM 46.0535 -151.4566 93° East 522 601 36,000  Level FlightAware Transoceanic
Fri 04:12:00 PM 46.0470 -151.2484 93° East 522 601 36,000  Level FlightAware Transoceanic
Fri 04:13:00 PM 46.0401 -151.0402 93° East 522 601 36,000  Level FlightAware Transoceanic
Fri 04:14:00 PM 46.0328 -150.8320 93° East 522 601 36,000  Level FlightAware Transoceanic
Fri 04:14:32 PM 46.0333 -150.8833 93° East 519 597 36,000  Level Oakland Oceanic (ODAPS)
Fri 04:15:00 PM 46.0252 -150.6239 93° East 522 601 36,000  Level FlightAware Transoceanic
Fri 04:16:00 PM 46.0172 -150.4159 93° East 522 601 36,000  Level FlightAware Transoceanic
Fri 04:17:00 PM 46.0088 -150.2079 93° East 522 601 36,000  Level FlightAware Transoceanic
Fri 04:18:00 PM 46.0000 -150.0000 95° East 522 601 36,000  Level FlightAware Transoceanic
Fri 04:18:43 PM 46.0000 -150.0000 95° East 524 603 36,000  Level Oakland Oceanic (ODAPS)
Fri 04:19:00 PM 45.9879 -149.7840 95° East 522 601 36,000  Level FlightAware Transoceanic
Fri 04:20:00 PM 45.9876 -149.7793 95° East 519 597 36,000  Level FlightAware Transoceanic
Fri 04:21:00 PM 45.9749 -149.5587 95° East 519 597 36,000  Level FlightAware Transoceanic
Fri 04:22:00 PM 45.9617 -149.3383 95° East 519 597 36,000  Level FlightAware Transoceanic
Fri 04:23:00 PM 45.9480 -149.1179 95° East 519 597 36,000  Level FlightAware Transoceanic
Fri 04:23:56 PM 45.9333 -148.9333 95° East 524 603 36,000  Level Oakland Oceanic (ODAPS)
Fri 04:24:00 PM 45.9340 -148.8976 95° East 519 597 36,000  Level FlightAware Transoceanic
Fri 04:24:06 PM 45.9333 -148.9333 95° East 523 602 36,000  Level Oakland Oceanic (ODAPS)
Fri 04:25:00 PM 45.9232 -148.7325 95° East 524 603 36,000  Level FlightAware Transoceanic
Fri 04:26:00 PM 45.9090 -148.5216 96° East 524 603 36,000  Level FlightAware Transoceanic
Fri 04:27:00 PM 45.8944 -148.3109 96° East 524 603 36,000  Level FlightAware Transoceanic
Fri 04:28:00 PM 45.8795 -148.1002 96° East 524 603 36,000  Level FlightAware Transoceanic
Fri 04:28:15 PM 45.8667 -148.0333 96° East 528 608 36,000  Level Oakland Oceanic (ODAPS)
Fri 04:29:00 PM 45.8642 -147.8896 96° East 524 603 36,000  Level FlightAware Transoceanic
Fri 04:29:14 PM 45.8667 -147.8333 96° East 529 609 36,000  Level Oakland Oceanic (ODAPS)
Fri 04:30:00 PM 45.8452 -147.6705 96° East 524 603 36,000  Level FlightAware Transoceanic
Fri 04:31:00 PM 45.8292 -147.4604 96° East 524 603 36,000  Level FlightAware Transoceanic
Fri 04:32:00 PM 45.8128 -147.2505 96° East 524 603 36,000  Level FlightAware Transoceanic
Fri 04:33:00 PM 45.7960 -147.0407 97° East 524 603 36,000  Level FlightAware Transoceanic
Fri 04:34:00 PM 45.7703 -146.7825 97° East 528 608 36,000  Level FlightAware Transoceanic
Fri 04:35:00 PM 45.7657 -146.5815 97° East 529 609 36,000  Level FlightAware Transoceanic
Fri 04:36:00 PM 45.7475 -146.3733 97° East 529 609 36,000  Level FlightAware Transoceanic
Fri 04:37:00 PM 45.7290 -146.1653 97° East 529 609 36,000  Level FlightAware Transoceanic
Fri 04:38:00 PM 45.7101 -145.9574 97° East 529 609 36,000  Level FlightAware Transoceanic
Fri 04:39:00 PM 45.6908 -145.7496 98° East 529 609 36,000  Level FlightAware Transoceanic
Fri 04:40:00 PM 45.6711 -145.5420 98° East 529 609 36,000  Level FlightAware Transoceanic
Fri 04:41:00 PM 45.6511 -145.3345 98° East 529 609 36,000  Level FlightAware Transoceanic
Fri 04:42:00 PM 45.6307 -145.1272 98° East 529 609 36,000  Level FlightAware Transoceanic
Fri 04:42:08 PM 45.6333 -145.1667 98° East 533 613 36,000  Level Oakland Oceanic (ODAPS)
Fri 04:43:00 PM 45.6099 -144.9200 98° East 529 609 36,000  Level FlightAware Transoceanic
Fri 04:44:00 PM 45.5887 -144.7130 98° East 529 609 36,000  Level FlightAware Transoceanic
Fri 04:45:00 PM 45.5672 -144.5061 99° East 529 609 36,000  Level FlightAware Transoceanic
Fri 04:46:00 PM 45.5452 -144.2995 99° East 529 609 36,000  Level FlightAware Transoceanic
Fri 04:47:00 PM 45.5230 -144.0929 99° East 529 609 36,000  Level FlightAware Transoceanic
Fri 04:48:00 PM 45.5027 -143.9164 99° East 533 613 36,000  Level FlightAware Transoceanic
Fri 04:49:00 PM 45.4796 -143.7086 99° East 533 613 36,000  Level FlightAware Transoceanic
Fri 04:50:00 PM 45.4561 -143.5010 99° East 533 613 36,000  Level FlightAware Transoceanic
Fri 04:51:00 PM 45.4322 -143.2936 99° East 533 613 36,000  Level FlightAware Transoceanic
Fri 04:52:00 PM 45.4080 -143.0863 100° East 533 613 36,000  Level FlightAware Transoceanic
Fri 04:53:00 PM 45.3834 -142.8792 100° East 533 613 36,000  Level FlightAware Transoceanic
Fri 04:54:00 PM 45.3584 -142.6723 100° East 533 613 36,000  Level FlightAware Transoceanic
Fri 04:55:00 PM 45.3331 -142.4655 100° East 533 613 36,000  Level FlightAware Transoceanic
Fri 04:56:00 PM 45.3074 -142.2590 100° East 533 613 36,000  Level FlightAware Transoceanic
Fri 04:56:06 PM 45.3000 -142.2667 100° East 541 623 36,000  Level Oakland Oceanic (ODAPS)
Fri 04:57:00 PM 45.2812 -142.0526 100° East 533 613 36,000  Level FlightAware Transoceanic
Fri 04:58:00 PM 45.2548 -141.8465 100° East 533 613 36,000  Level FlightAware Transoceanic
Fri 04:59:00 PM 45.2280 -141.6405 101° East 533 613 36,000  Level FlightAware Transoceanic
Fri 05:00:00 PM 45.2007 -141.4347 101° East 533 613 36,000  Level FlightAware Transoceanic
Fri 05:01:00 PM 45.1732 -141.2292 101° East 533 613 36,000  Level FlightAware Transoceanic
Fri 05:02:00 PM 45.1419 -141.0273 101° East 541 623 36,000  Level FlightAware Transoceanic
Fri 05:03:00 PM 45.1143 -140.8215 101° East 541 623 36,000  Level FlightAware Transoceanic
Fri 05:04:00 PM 45.0863 -140.6158 101° East 541 623 36,000  Level FlightAware Transoceanic
Fri 05:05:00 PM 45.0579 -140.4103 101° East 541 623 36,000  Level FlightAware Transoceanic
Fri 05:06:00 PM 45.0291 -140.2051 101° East 541 623 36,000  Level FlightAware Transoceanic
Fri 05:06:53 PM 45.0000 -140.0000 109° East 535 616 36,000  Level Oakland Oceanic (ODAPS)
Fri 05:07:00 PM 45.0000 -140.0000 109° East 541 623 36,000  Level FlightAware Transoceanic
Fri 05:08:00 PM 44.9498 -139.7945 109° East 541 623 36,000  Level FlightAware Transoceanic
Fri 05:09:00 PM 44.8993 -139.5894 109° East 541 623 36,000  Level FlightAware Transoceanic
Fri 05:09:58 PM 44.8500 -139.4000 109° East 538 619 36,000  Level Oakland Oceanic (ODAPS)
Fri 05:10:00 PM 44.8484 -139.3846 109° East 541 623 36,000  Level FlightAware Transoceanic
Fri 05:11:00 PM 44.7971 -139.1802 110° East 541 623 36,000  Level FlightAware Transoceanic
Fri 05:12:00 PM 44.7455 -138.9762 110° East 541 623 36,000  Level FlightAware Transoceanic
Fri 05:13:00 PM 44.7053 -138.8186 110° East 535 616 36,000  Level FlightAware Transoceanic
Fri 05:14:00 PM 44.6550 -138.6229 110° East 535 616 36,000  Level FlightAware Transoceanic
Fri 05:15:00 PM 44.6044 -138.4275 110° East 535 616 36,000  Level FlightAware Transoceanic
Fri 05:16:00 PM 44.5434 -138.2019 110° East 538 619 36,000  Level FlightAware Transoceanic
Fri 05:17:00 PM 44.4911 -138.0034 110° East 538 619 36,000  Level FlightAware Transoceanic
Fri 05:18:00 PM 44.4385 -137.8053 110° East 538 619 36,000  Level FlightAware Transoceanic
Fri 05:19:00 PM 44.3855 -137.6076 111° Southeast 538 619 36,000  Level FlightAware Transoceanic
Fri 05:20:00 PM 44.3321 -137.4102 111° Southeast 538 619 36,000  Level FlightAware Transoceanic
Fri 05:21:00 PM 44.2785 -137.2132 111° Southeast 538 619 36,000  Level FlightAware Transoceanic
Fri 05:22:00 PM 44.2244 -137.0165 111° Southeast 538 619 36,000  Level FlightAware Transoceanic
Fri 05:23:00 PM 44.1701 -136.8202 111° Southeast 538 619 36,000  Level FlightAware Transoceanic
Fri 05:23:50 PM 44.1333 -136.7000 111° Southeast 537 618 36,000  Level Oakland Oceanic (ODAPS)
Fri 05:24:00 PM 44.1154 -136.6243 111° Southeast 538 619 36,000  Level FlightAware Transoceanic
Fri 05:25:00 PM 44.0604 -136.4287 111° Southeast 538 619 36,000  Level FlightAware Transoceanic
Fri 05:26:00 PM 44.0051 -136.2335 112° Southeast 538 619 36,000  Level FlightAware Transoceanic
Fri 05:27:00 PM 43.9494 -136.0387 112° Southeast 538 619 36,000  Level FlightAware Transoceanic
Fri 05:28:00 PM 43.8933 -135.8442 112° Southeast 538 619 36,000  Level FlightAware Transoceanic
Fri 05:29:00 PM 43.8370 -135.6501 112° Southeast 538 619 36,000  Level FlightAware Transoceanic
Fri 05:30:00 PM 43.7958 -135.5184 112° Southeast 537 618 36,000  Level FlightAware Transoceanic
Fri 05:31:00 PM 43.7384 -135.3228 112° Southeast 537 618 36,000  Level FlightAware Transoceanic
Fri 05:32:00 PM 43.6806 -135.1276 112° Southeast 537 618 36,000  Level FlightAware Transoceanic
Fri 05:33:00 PM 43.6225 -134.9327 112° Southeast 537 618 36,000  Level FlightAware Transoceanic
Fri 05:34:00 PM 43.5641 -134.7382 113° Southeast 537 618 36,000  Level FlightAware Transoceanic
Fri 05:35:00 PM 43.5054 -134.5441 113° Southeast 537 618 36,000  Level FlightAware Transoceanic
Fri 05:36:00 PM 43.4463 -134.3504 113° Southeast 537 618 36,000  Level FlightAware Transoceanic
Fri 05:37:00 PM 43.3869 -134.1570 113° Southeast 537 618 36,000  Level FlightAware Transoceanic
Fri 05:37:42 PM 43.3667 -134.0667 113° Southeast 536 617 36,000  Level Oakland Oceanic (ODAPS)
Fri 05:38:00 PM 43.3271 -133.9640 113° Southeast 537 618 36,000  Level FlightAware Transoceanic
Fri 05:39:00 PM 43.2671 -133.7715 113° Southeast 537 618 36,000  Level FlightAware Transoceanic
Fri 05:40:00 PM 43.2067 -133.5792 113° Southeast 537 618 36,000  Level FlightAware Transoceanic
Fri 05:41:00 PM 43.1460 -133.3874 114° Southeast 537 618 36,000  Level FlightAware Transoceanic
Fri 05:42:00 PM 43.0850 -133.1960 114° Southeast 537 618 36,000  Level FlightAware Transoceanic
Fri 05:43:00 PM 43.0237 -133.0049 114° Southeast 537 618 36,000  Level FlightAware Transoceanic
Fri 05:44:00 PM 42.9660 -132.8100 114° Southeast 536 617 36,000  Level FlightAware Transoceanic
Fri 05:45:00 PM 42.9077 -132.6319 114° Southeast 536 617 36,000  Level FlightAware Transoceanic
Fri 05:46:00 PM 42.8491 -132.4541 114° Southeast 536 617 36,000  Level FlightAware Transoceanic
Fri 05:47:00 PM 42.7902 -132.2766 114° Southeast 536 617 36,000  Level FlightAware Transoceanic
Fri 05:48:00 PM 42.7310 -132.0994 115° Southeast 536 617 36,000  Level FlightAware Transoceanic
Fri 05:49:00 PM 42.6716 -131.9226 115° Southeast 536 617 36,000  Level FlightAware Transoceanic
Fri 05:50:00 PM 42.6118 -131.7461 115° Southeast 536 617 36,000  Level FlightAware Transoceanic
Fri 05:51:00 PM 42.5519 -131.5700 115° Southeast 536 617 36,000 638 Level FlightAware Transoceanic
Fri 05:51:34 PM 42.5333 -131.5000 115° Southeast 534 615 37,000  Climbing Oakland Oceanic (ODAPS)
Fri 05:52:00 PM 42.4916 -131.3942 115° Southeast 536 617 36,000 -698 Descending FlightAware Transoceanic
Fri 05:53:00 PM 42.4311 -131.2187 115° Southeast 536 617 36,000  Level FlightAware Transoceanic
Fri 05:54:00 PM 42.3703 -131.0436 115° Southeast 536 617 36,000  Level FlightAware Transoceanic
Fri 05:55:00 PM 42.3092 -130.8688 115° Southeast 536 617 36,000  Level FlightAware Transoceanic
Fri 05:56:00 PM 42.2479 -130.6944 115° Southeast 536 617 36,000 500 Level FlightAware Transoceanic
Fri 05:57:00 PM 42.1800 -130.4972 116° Southeast 534 615 37,000 500 Climbing FlightAware Transoceanic
Fri 05:58:00 PM 42.1202 -130.3311 116° Southeast 534 615 37,000  Level FlightAware Transoceanic
Fri 05:59:00 PM 42.0602 -130.1654 116° Southeast 534 615 37,000  Level FlightAware Transoceanic
Fri 05:59:49 PM 42.0000 -130.0000 120° Southeast 536 617 37,000  Level Oakland Oceanic (ODAPS)
Fri 06:00:00 PM 42.0000 -130.0000 120° Southeast 534 615 37,000  Level FlightAware Transoceanic
Fri 06:01:00 PM 41.9218 -129.8200 120° Southeast 534 615 37,000  Level FlightAware Transoceanic
Fri 06:02:00 PM 41.8433 -129.6405 120° Southeast 534 615 37,000  Level FlightAware Transoceanic
Fri 06:03:00 PM 41.7645 -129.4614 121° Southeast 534 615 37,000  Level FlightAware Transoceanic
Fri 06:04:00 PM 41.6855 -129.2828 121° Southeast 534 615 37,000  Level FlightAware Transoceanic
Fri 06:05:00 PM 41.6062 -129.1046 121° Southeast 534 615 37,000  Level FlightAware Transoceanic
Fri 06:05:27 PM 41.5833 -129.0500 121° Southeast 539 620 37,000  Level Oakland Oceanic (ODAPS)
Fri 06:06:00 PM 41.5266 -128.9268 121° Southeast 536 617 37,000  Level FlightAware Transoceanic
Fri 06:07:00 PM 41.4467 -128.7495 121° Southeast 536 617 37,000  Level FlightAware Transoceanic
Fri 06:08:00 PM 41.3666 -128.5726 121° Southeast 536 617 37,000  Level FlightAware Transoceanic
Fri 06:09:00 PM 41.2862 -128.3961 121° Southeast 536 617 37,000  Level FlightAware Transoceanic
Fri 06:10:00 PM 41.2055 -128.2201 121° Southeast 536 617 37,000  Level FlightAware Transoceanic
Fri 06:11:00 PM 41.1129 -128.0176 122° Southeast 539 620 37,000  Level FlightAware Transoceanic
Fri 06:12:00 PM 41.0336 -127.8470 122° Southeast 539 620 37,000  Level FlightAware Transoceanic
Fri 06:13:00 PM 40.9540 -127.6768 122° Southeast 539 620 37,000  Level FlightAware Transoceanic
Fri 06:14:00 PM 40.8742 -127.5070 122° Southeast 539 620 37,000 -61 Level FlightAware Transoceanic
Fri 06:14:39 PM 40.8450 -127.4525 118° Southeast 542 624 36,900  Descending Oakland Center
Fri 06:15:00 PM 40.7942 -127.3376 122° Southeast 539 620 37,000  Climbing FlightAware Transoceanic
Fri 06:15:41 PM 40.7647 -127.2844 122° Southeast 542 624 36,900  Descending Oakland Center
Fri 06:16:00 PM 40.7139 -127.1686 122° Southeast 539 620 37,000  Climbing FlightAware Transoceanic
Fri 06:16:42 PM 40.6831 -127.1181 123° Southeast 543 625 36,900  Descending Oakland Center
Fri 06:17:00 PM 40.6333 -127.0000 118° Southeast 539 620 37,000  Climbing FlightAware Transoceanic
Fri 06:17:43 PM 40.6050 -126.9475 121° Southeast 545 627 36,900  Descending Oakland Center
Fri 06:18:00 PM 40.5640 -126.8266 118° Southeast 539 620 37,000 97 Climbing FlightAware Transoceanic
Fri 06:18:45 PM 40.5206 -126.7847 124° Southeast 543 625 37,000  Level Oakland Center
Fri 06:19:00 PM 40.4944 -126.6535 118° Southeast 539 620 37,000 -98 Level FlightAware Transoceanic
Fri 06:19:46 PM 40.4256 -126.6372 130° Southeast 534 615 36,900  Descending Oakland Center
Fri 06:20:00 PM 40.4246 -126.4807 118° Southeast 539 620 37,000 97 Climbing FlightAware Transoceanic
Fri 06:20:48 PM 40.3267 -126.4875 131° Southeast 541 623 37,000  Level Oakland Center
Fri 06:21:49 PM 40.2108 -126.3075 130° Southeast 541 623 37,000  Level Oakland Center
Fri 06:22:50 PM 40.1122 -126.1600 131° Southeast 541 623 37,000 -49 Level Oakland Center
Fri 06:23:52 PM 40.0169 -126.0108 130° Southeast 540 621 36,900  Descending Oakland Center
Fri 06:24:53 PM 39.9197 -125.8639 131° Southeast 539 620 37,000  Climbing Oakland Center
Fri 06:25:54 PM 39.8211 -125.7178 131° Southeast 539 620 36,900 -49 Descending Oakland Center
Fri 06:26:56 PM 39.7242 -125.5719 131° Southeast 538 619 36,900  Level Oakland Center
Fri 06:27:57 PM 39.6258 -125.4261 131° Southeast 539 620 36,900  Level Oakland Center
Fri 06:28:58 PM 39.5289 -125.2783 130° Southeast 541 623 36,900 49 Level Oakland Center
Fri 06:30:00 PM 39.4108 -125.1067 132° Southeast 535 616 37,000 49 Climbing Oakland Center
Fri 06:31:01 PM 39.3247 -124.9764 130° Southeast 534 615 37,000 -49 Level Oakland Center
Fri 06:32:03 PM 39.2244 -124.8325 132° Southeast 536 617 36,900 -49 Descending Oakland Center
Fri 06:33:04 PM 39.1172 -124.6742 131° Southeast 537 618 36,900 49 Level Oakland Center
Fri 06:34:05 PM 39.0078 -124.5164 132° Southeast 537 618 37,000  Climbing Oakland Center
Fri 06:35:07 PM 38.9094 -124.3728 131° Southeast 536 617 36,900 -49 Descending Oakland Center
Fri 06:36:08 PM 38.8214 -124.2461 132° Southeast 537 618 36,900 49 Level Oakland Center
Fri 06:37:10 PM 38.7114 -124.0867 131° Southeast 538 619 37,000 49 Climbing Oakland Center
Fri 06:38:11 PM 38.6125 -123.9458 132° Southeast 535 616 37,000 -49 Level Oakland Center
Fri 06:39:13 PM 38.5119 -123.8047 132° Southeast 538 619 36,900  Descending Oakland Center
Fri 06:40:14 PM 38.4136 -123.6636 132° Southeast 533 613 37,000  Climbing Oakland Center
Fri 06:41:15 PM 38.3133 -123.5233 132° Southeast 537 618 36,900  Descending Oakland Center
Fri 06:42:17 PM 38.1939 -123.3558 132° Southeast 536 617 37,000  Climbing Oakland Center
Fri 06:43:18 PM 38.0928 -123.2189 133° Southeast 536 617 36,900  Descending Oakland Center
Fri 06:44:20 PM 37.9950 -123.0808 132° Southeast 530 610 37,000 49 Climbing Oakland Center
Fri 06:45:21 PM 37.8956 -122.9450 133° Southeast 531 611 37,000  Level Oakland Center
Fri 06:46:22 PM 37.7967 -122.8111 133° Southeast 531 611 37,000 -49 Level Oakland Center
Fri 06:47:24 PM 37.6992 -122.6758 132° Southeast 531 611 36,900  Descending Oakland Center
Fri 06:48:25 PM 37.5811 -122.5150 133° Southeast 528 608 37,000 49 Climbing Oakland Center
Fri 06:49:26 PM 37.4836 -122.3797 132° Southeast 527 606 37,000  Level Oakland Center
Fri 06:50:28 PM 37.3842 -122.2456 133° Southeast 527 606 37,000  Level Oakland Center
Fri 06:51:29 PM 37.2847 -122.1117 133° Southeast 526 605 37,000 -49 Level Oakland Center
Fri 06:52:31 PM 37.1864 -121.9781 133° Southeast 524 603 36,900 -49 Descending Oakland Center
Fri 06:53:32 PM 37.0875 -121.8461 133° Southeast 522 601 36,900 49 Level Oakland Center
Fri 06:54:33 PM 36.9861 -121.7153 134° Southeast 521 600 37,000  Climbing Oakland Center
Fri 06:55:35 PM 36.8872 -121.5839 133° Southeast 521 600 36,900  Descending Oakland Center
Fri 06:56:36 PM 36.7786 -121.4364 133° Southeast 521 600 37,000 49 Climbing Oakland Center
Fri 06:57:37 PM 36.6781 -121.3050 134° Southeast 523 602 37,000 -49 Level Oakland Center
Fri 06:58:39 PM 36.5772 -121.1747 134° Southeast 522 601 36,900  Descending Oakland Center
Fri 06:59:40 PM 36.4775 -121.0422 133° Southeast 524 603 37,000 49 Climbing Oakland Center
Fri 07:00:41 PM 36.3778 -120.9122 134° Southeast 520 598 37,000 -49 Level Oakland Center
Fri 07:01:43 PM 36.2569 -120.7564 134° Southeast 521 600 36,900 -49 Descending Oakland Center
Fri 07:02:44 PM 36.1561 -120.6269 134° Southeast 520 598 36,900  Level Oakland Center
Fri 07:03:45 PM 36.0547 -120.4964 134° Southeast 523 602 36,900 49 Level Oakland Center
Fri 07:04:47 PM 35.9536 -120.3675 134° Southeast 518 596 37,000  Climbing Oakland Center
Fri 07:05:48 PM 35.8522 -120.2364 134° Southeast 520 598 36,900 -49 Descending Oakland Center
Fri 07:06:49 PM 35.7492 -120.1067 134° Southeast 523 602 36,900  Level Oakland Center
Fri 07:07:51 PM 35.6469 -119.9794 135° Southeast 520 598 36,900 -732 Level Oakland Center
Fri 07:08:52 PM 35.5294 -119.8733 144° Southeast 515 593 35,400 -1,574 Descending Oakland Center
Fri 07:09:53 PM 35.4086 -119.7719 146° Southeast 518 596 33,700 -1,881 Descending Oakland Center
Fri 07:10:50 PM 35.2933 -119.6736 145° Southeast 508 585 31,700 -2,017 Descending Los Angeles Center
Fri 07:11:52 PM 35.1811 -119.5772 145° Southeast 494 568 29,700 -1,935 Descending Los Angeles Center
Fri 07:12:54 PM 35.0733 -119.4842 145° Southeast 477 549 27,700 -1,839 Descending Los Angeles Center
Fri 07:13:56 PM 34.9667 -119.3947 145° Southeast 466 536 25,900 -1,935 Descending Los Angeles Center
Fri 07:14:58 PM 34.8442 -119.2897 145° Southeast 451 519 23,700 -1,872 Descending Los Angeles Center
Fri 07:16:01 PM 34.7444 -119.2042 145° Southeast 440 506 22,000 -1,680 Descending Los Angeles Center
Fri 07:17:03 PM 34.6458 -119.1231 146° Southeast 430 495 20,200 -1,597 Descending Los Angeles Center
Fri 07:18:05 PM 34.5567 -119.0478 145° Southeast 421 484 18,700 -1,694 Descending Los Angeles Center
Fri 07:19:07 PM 34.4447 -118.9536 145° Southeast 410 472 16,700 -1,742 Descending Los Angeles Center
Fri 07:20:09 PM 34.3531 -118.8817 147° Southeast 392 451 15,100 -1,548 Descending Los Angeles Center
Fri 07:21:11 PM 34.2517 -118.8422 162° South 382 440 13,500 -1,500 Descending Los Angeles Center
Fri 07:22:13 PM 34.1519 -118.8064 163° South 374 430 12,000 -1,306 Descending Los Angeles Center
Fri 07:23:15 PM 34.0500 -118.7536 157° South 357 411 10,800 -1,008 Descending Los Angeles Center
Fri 07:24:18 PM 34.0289 -118.6542 104° East 305 351 9,900 -1,104 Descending Los Angeles Center
Fri 07:25:20 PM 34.0189 -118.5453 96° East 299 344 8,500 -1,258 Descending Los Angeles Center
Fri 07:26:22 PM 34.0108 -118.4508 96° East 289 333 7,300 -1,306 Descending Los Angeles Center
Fri 07:27:24 PM 34.0178 -118.3672 84° East 261 300 5,800 -1,548 Descending Los Angeles Center
Fri 07:28:26 PM 34.0231 -118.2831 86° East 251 289 4,100 -1,113 Descending Los Angeles Center
Fri 07:29:28 PM 34.0297 -118.2036 84° East 243 280 3,500 -532 Descending Los Angeles Center
Fri 07:30:30 PM 33.9956 -118.1797 150° Southeast 215 247 3,000 -581 Descending Los Angeles Center
Fri 07:31:32 PM 33.9683 -118.2450 243° Southwest 191 220 2,300 -581 Descending Los Angeles Center
Fri 07:32:34 PM 33.9625 -118.3006 263° West 179 206 1,800 -576 Descending Los Angeles Center
Fri 07:33:37 PM 33.9583 -118.3433 263° West 151 174 1,100 -624 Descending Los Angeles Center
Fri 07:34:39 PM 33.9547 -118.3875 264° West 139 160 500 -484 Descending Los Angeles Center
Fri 07:35:41 PM 33.9489 -118.4406 262° West 137 158 100 -387 Descending Los Angeles Center
Fri 07:37:00 PM 33.9425 -118.4081 239° Southwest  Level Estimated

Login

Don't have an account? Register now (free) for customized features, flight alerts, and more!